createdAt,value
2019-04-01T21:11:54.000Z,41.30
2019-04-01T21:14:24.149Z,45.60
2019-04-01T21:16:53.883Z,45.60
2019-04-01T21:19:23.423Z,44.80
2019-04-01T21:21:53.137Z,36.70
2019-04-01T21:24:22.728Z,41.70
2019-04-01T21:26:52.305Z,44.60
2019-04-01T21:29:22.814Z,46.20
2019-04-01T21:31:52.824Z,46.70
2019-04-01T21:34:22.468Z,47.90
2019-04-01T21:36:52.117Z,48.80
2019-04-01T21:39:21.723Z,48.60
2019-04-01T21:41:51.294Z,48.60
2019-04-01T21:44:20.860Z,48.70
2019-04-01T21:46:50.514Z,48.80
2019-04-01T21:49:20.164Z,48.80
2019-04-01T21:51:49.841Z,48.50
2019-04-01T21:54:19.416Z,48.60
2019-04-01T21:56:49.135Z,48.20
2019-04-01T21:59:18.710Z,48.40
2019-04-01T22:01:48.344Z,48.90
2019-04-01T22:04:18.064Z,49.00
2019-04-01T22:06:47.783Z,48.80
2019-04-01T22:09:17.497Z,49.30
2019-04-01T22:11:47.149Z,49.30
2019-04-01T22:14:16.717Z,48.60
2019-04-01T22:16:47.188Z,48.20
2019-04-01T22:19:17.422Z,48.30
2019-04-01T22:21:47.001Z,48.20
2019-04-01T22:24:16.660Z,47.90
2019-04-01T22:26:46.152Z,47.80
2019-04-01T22:29:15.800Z,47.90
2019-04-01T22:31:45.368Z,48.20
2019-04-01T22:34:15.036Z,47.60
2019-04-01T22:36:44.684Z,48.30
2019-04-01T22:39:26.283Z,49.10
2019-04-01T22:41:45.523Z,49.20
2019-04-01T22:44:15.094Z,49.80
2019-04-01T22:46:44.833Z,49.00
2019-04-01T22:49:14.597Z,49.10
2019-04-01T22:51:44.166Z,48.90
2019-04-01T22:54:13.805Z,48.70
2019-04-01T22:56:43.379Z,49.20
2019-04-01T22:59:12.951Z,50.30
2019-04-01T23:01:42.453Z,49.60
2019-04-01T23:04:12.019Z,49.80
2019-04-01T23:06:41.604Z,49.30
2019-04-01T23:09:11.167Z,49.20
2019-04-01T23:11:40.970Z,49.70
2019-04-01T23:14:11.675Z,50.00
2019-04-01T23:16:41.673Z,50.10
2019-04-01T23:19:11.307Z,50.50
2019-04-01T23:21:40.958Z,50.30
2019-04-01T23:24:10.688Z,50.40
2019-04-01T23:26:40.257Z,51.40
2019-04-01T23:29:09.898Z,51.70
2019-04-01T23:31:39.463Z,52.10
2019-04-01T23:34:09.049Z,52.50
2019-04-01T23:36:38.692Z,52.60
2019-04-01T23:39:08.517Z,52.50
2019-04-01T23:41:38.159Z,52.60
2019-04-01T23:44:07.668Z,52.40
2019-04-01T23:46:37.569Z,52.90
2019-04-01T23:49:07.210Z,53.50
2019-04-01T23:51:36.934Z,53.40
2019-04-01T23:54:06.604Z,53.30
2019-04-01T23:56:36.103Z,53.50
2019-04-01T23:59:05.756Z,53.60
